Time;durP1;ratioP1;P1;durP2;ratioP2;P2;SDS_P1;SDS_P2;PMS_P1;PMS_P2;Temp;Humidity;BMP_temperature;BMP_pressure;BME280_temperature;BME280_humidity;BME280_pressure;Samples;Min_cycle;Max_cycle;Signal;HPM_P1;HPM_P2
2021/10/17 00:02:19;;;;;;;9.20;5.20;;;;;;;12.59;100.00;100526.06;5032994;28;20520;-69
2021/10/17 00:04:44;;;;;;;9.77;5.30;;;;;;;13.13;100.00;100617.44;5047179;28;20024;-72
2021/10/17 00:07:10;;;;;;;8.68;5.28;;;;;;;13.17;100.00;100621.00;5049092;28;20475;-72
2021/10/17 00:09:38;;;;;;;7.05;5.38;;;;;;;13.19;100.00;100621.94;5048031;28;20056;-68
2021/10/17 00:12:09;;;;;;;6.53;4.68;;;;;;;13.10;100.00;100632.94;5040524;28;20026;-67
2021/10/17 00:14:34;;;;;;;7.13;5.00;;;;;;;13.04;100.00;100612.88;5032077;28;20018;-67
2021/10/17 00:17:01;;;;;;;8.55;5.20;;;;;;;13.12;100.00;100628.66;5018356;28;20040;-68
2021/10/17 00:19:26;;;;;;;8.35;4.95;;;;;;;13.14;100.00;100623.53;5032042;28;20025;-66
2021/10/17 00:21:52;;;;;;;6.85;4.38;;;;;;;13.07;100.00;100622.44;5035394;28;20035;-67
2021/10/17 00:24:18;;;;;;;6.78;4.10;;;;;;;13.06;100.00;100621.59;5051753;28;20033;-68
2021/10/17 00:26:43;;;;;;;8.73;4.55;;;;;;;12.78;100.00;100581.03;5052362;28;20041;-68
2021/10/17 00:29:09;;;;;;;6.78;4.80;;;;;;;12.97;100.00;100610.94;5052259;28;20669;-68
2021/10/17 00:31:34;;;;;;;6.40;4.28;;;;;;;12.89;100.00;100600.34;5052161;28;20519;-69
2021/10/17 00:34:00;;;;;;;8.48;4.82;;;;;;;12.95;100.00;100625.59;5052291;28;20461;-66
2021/10/17 00:36:27;;;;;;;11.20;5.15;;;;;;;13.00;100.00;100623.13;5051774;28;20039;-68
2021/10/17 00:38:53;;;;;;;6.95;4.28;;;;;;;12.81;100.00;100588.00;5051643;28;20067;-68
2021/10/17 00:41:19;;;;;;;5.70;4.43;;;;;;;12.88;100.00;100631.41;5051781;28;20020;-70
2021/10/17 00:43:45;;;;;;;6.57;4.60;;;;;;;12.88;100.00;100621.03;5051660;28;20113;-67
2021/10/17 00:46:21;;;;;;;7.70;4.05;;;;;;;12.91;100.00;100621.13;5051917;28;20540;-68
2021/10/17 00:48:47;;;;;;;6.85;3.97;;;;;;;12.76;100.00;100583.56;5051721;28;20035;-66
2021/10/17 00:51:14;;;;;;;5.53;3.97;;;;;;;12.86;100.00;100613.22;5051521;28;20033;-66
2021/10/17 00:53:39;;;;;;;11.63;4.43;;;;;;;12.86;100.00;100613.22;5051593;28;20116;-68
2021/10/17 00:56:05;;;;;;;12.60;4.18;;;;;;;12.57;100.00;100558.84;5051687;28;20453;-69
2021/10/17 00:58:31;;;;;;;8.35;4.38;;;;;;;12.84;100.00;100595.88;5051592;28;20559;-66
2021/10/17 01:00:57;;;;;;;7.20;4.05;;;;;;;12.84;100.00;100591.56;5051703;28;20029;-68
2021/10/17 01:03:22;;;;;;;6.95;4.35;;;;;;;12.66;100.00;100558.25;5051360;28;20033;-68
2021/10/17 01:05:48;;;;;;;5.95;4.18;;;;;;;12.88;100.00;100583.03;5050900;28;20027;-64
2021/10/17 01:08:14;;;;;;;4.65;3.58;;;;;;;12.59;100.00;100533.84;5051258;28;20562;-66
2021/10/17 01:10:39;;;;;;;6.68;4.22;;;;;;;13.00;100.00;100595.50;5051606;28;20112;-68
2021/10/17 01:13:05;;;;;;;7.10;4.25;;;;;;;13.18;100.00;100617.59;5051412;28;20021;-68
2021/10/17 01:15:30;;;;;;;6.82;3.90;;;;;;;12.36;100.00;100472.72;5051284;28;20021;-67
2021/10/17 01:17:56;;;;;;;6.15;4.10;;;;;;;13.07;100.00;100597.44;5033434;28;20036;-66
2021/10/17 01:20:22;;;;;;;8.23;4.15;;;;;;;13.19;100.00;100628.00;5045938;28;20447;-67
2021/10/17 01:22:49;;;;;;;7.35;4.07;;;;;;;13.22;100.00;100622.03;5051020;28;20047;-68
2021/10/17 01:25:14;;;;;;;5.75;3.92;;;;;;;13.18;100.00;100628.81;5051202;28;20399;-68
2021/10/17 01:27:39;;;;;;;6.18;4.05;;;;;;;13.19;100.00;100647.88;5051096;28;20045;-66
2021/10/17 01:30:08;;;;;;;9.15;5.38;;;;;;;13.16;100.00;100630.50;5051161;28;20029;-64
2021/10/17 01:32:34;;;;;;;34.63;26.95;;;;;;;13.11;100.00;100624.31;5043388;28;20037;-66
2021/10/17 01:34:59;;;;;;;30.90;24.58;;;;;;;12.99;100.00;100608.41;5031204;28;20033;-67
2021/10/17 01:37:25;;;;;;;28.27;23.05;;;;;;;12.66;100.00;100547.88;5032381;28;20548;-66
2021/10/17 01:39:50;;;;;;;26.90;20.35;;;;;;;13.01;100.00;100611.91;5043044;28;20036;-69
2021/10/17 01:42:16;;;;;;;13.13;11.15;;;;;;;13.14;100.00;100636.50;5024484;28;20175;-67
2021/10/17 01:44:42;;;;;;;6.80;4.70;;;;;;;13.00;100.00;100639.56;5045172;28;20394;-66
2021/10/17 01:47:08;;;;;;;7.45;4.00;;;;;;;12.66;100.00;100635.94;5046832;28;20422;-65
2021/10/17 01:49:35;;;;;;;5.57;3.90;;;;;;;12.54;100.00;100633.84;5025858;28;20511;-68
2021/10/17 01:52:00;;;;;;;8.55;3.97;;;;;;;12.41;100.00;100642.94;5040543;28;20025;-73
2021/10/17 01:54:26;;;;;;;7.85;4.10;;;;;;;12.32;100.00;100618.44;5045098;28;20052;-68
2021/10/17 01:56:51;;;;;;;5.85;4.18;;;;;;;12.43;100.00;100627.44;5048072;28;20493;-68
2021/10/17 01:59:17;;;;;;;6.05;3.75;;;;;;;12.56;100.00;100631.28;5040563;28;20219;-68
2021/10/17 02:01:44;;;;;;;6.47;4.00;;;;;;;12.62;100.00;100634.97;5050220;28;20029;-70
2021/10/17 02:04:10;;;;;;;5.82;3.92;;;;;;;12.61;100.00;100635.78;5046259;28;20029;-67
2021/10/17 02:06:35;;;;;;;6.78;3.90;;;;;;;12.67;100.00;100636.81;5046526;28;20533;-68
2021/10/17 02:09:01;;;;;;;6.55;4.10;;;;;;;12.37;100.00;100575.47;5046626;28;20096;-69
2021/10/17 02:11:27;;;;;;;6.22;4.20;;;;;;;12.69;100.00;100619.63;5046644;28;20029;-68
2021/10/17 02:13:52;;;;;;;6.25;3.60;;;;;;;12.81;100.00;100634.63;5046672;28;20108;-71
2021/10/17 02:16:18;;;;;;;7.20;3.63;;;;;;;12.81;100.00;100630.34;5046233;28;20686;-69
2021/10/17 02:18:43;;;;;;;4.35;3.38;;;;;;;12.65;100.00;100618.63;5042428;28;20519;-69
2021/10/17 02:21:09;;;;;;;7.85;3.65;;;;;;;12.71;100.00;100641.25;5037914;28;20499;-69
2021/10/17 02:23:34;;;;;;;8.68;4.03;;;;;;;12.22;100.00;100555.16;5052513;28;20033;-66
2021/10/17 02:26:00;;;;;;;5.53;3.40;;;;;;;12.75;100.00;100640.53;5045972;28;20025;-66
2021/10/17 02:28:25;;;;;;;7.15;4.25;;;;;;;12.70;100.00;100639.50;5051621;28;20419;-68
2021/10/17 02:30:50;;;;;;;5.10;3.58;;;;;;;12.73;100.00;100643.03;5050257;28;20410;-67
2021/10/17 02:33:16;;;;;;;8.18;4.05;;;;;;;12.69;100.00;100646.38;5049878;28;20372;-66
2021/10/17 02:35:42;;;;;;;6.68;3.90;;;;;;;12.44;100.00;100644.75;5049380;28;20036;-67
2021/10/17 02:38:07;;;;;;;6.18;3.88;;;;;;;12.35;100.00;100639.25;5050776;28;20040;-69
2021/10/17 02:40:33;;;;;;;7.93;3.47;;;;;;;12.43;100.00;100645.56;5044942;28;20031;-68
2021/10/17 02:42:58;;;;;;;8.18;3.78;;;;;;;12.50;100.00;100644.03;5048350;28;20040;-67
2021/10/17 02:45:24;;;;;;;7.15;3.63;;;;;;;12.56;100.00;100652.00;5031252;28;20475;-68
2021/10/17 02:47:49;;;;;;;4.35;2.97;;;;;;;11.74;100.00;100562.22;5048143;28;20044;-66
2021/10/17 02:50:16;;;;;;;5.95;3.13;;;;;;;12.08;100.00;100653.91;5044630;28;20025;-66
2021/10/17 02:52:41;;;;;;;5.97;3.30;;;;;;;12.19;100.00;100663.78;5043491;28;20945;-68
2021/10/17 02:55:07;;;;;;;6.53;3.17;;;;;;;12.16;100.00;100653.31;5038081;28;20025;-68
2021/10/17 02:57:32;;;;;;;7.63;3.00;;;;;;;12.21;100.00;100663.00;5047365;28;20025;-69
2021/10/17 02:59:58;;;;;;;6.82;2.92;;;;;;;12.24;100.00;100660.50;5046351;28;20059;-68
2021/10/17 03:02:23;;;;;;;6.20;2.53;;;;;;;12.26;100.00;100666.63;5010561;28;20037;-70
2021/10/17 03:04:49;;;;;;;6.90;2.60;;;;;;;12.16;100.00;100650.72;5044520;28;20420;-69
2021/10/17 03:07:14;;;;;;;3.45;2.55;;;;;;;11.95;100.00;100611.22;5047517;28;20079;-67
2021/10/17 03:09:39;;;;;;;3.90;2.88;;;;;;;12.23;100.00;100676.84;5039429;28;20036;-69
2021/10/17 03:12:05;;;;;;;4.63;2.78;;;;;;;12.30;100.00;100672.78;5048562;28;20475;-68
2021/10/17 03:14:31;;;;;;;3.40;2.20;;;;;;;12.29;100.00;100663.25;5038505;28;20036;-69
2021/10/17 03:16:56;;;;;;;4.75;2.50;;;;;;;12.36;100.00;100678.16;5041378;28;20380;-68
2021/10/17 03:19:22;;;;;;;5.78;2.30;;;;;;;12.35;100.00;100683.25;5045503;28;20029;-68
2021/10/17 03:21:47;;;;;;;3.50;2.30;;;;;;;12.28;100.00;100669.25;5049335;28;20029;-67
2021/10/17 03:24:13;;;;;;;7.68;2.17;;;;;;;12.41;100.00;100683.47;5049978;28;20119;-69
2021/10/17 03:26:39;;;;;;;5.30;2.20;;;;;;;12.19;100.00;100643.06;5041162;28;20080;-69
2021/10/17 03:29:04;;;;;;;5.95;2.30;;;;;;;12.39;100.00;100682.56;5041044;28;20026;-71
2021/10/17 03:31:32;;;;;;;6.70;2.40;;;;;;;12.42;100.00;100686.13;5036281;28;20045;-67
2021/10/17 03:33:58;;;;;;;5.22;3.00;;;;;;;12.38;100.00;100679.06;5042469;28;20487;-68
2021/10/17 03:36:24;;;;;;;4.85;2.50;;;;;;;12.44;100.00;100701.72;5046860;28;20575;-68
2021/10/17 03:38:50;;;;;;;6.18;2.10;;;;;;;12.25;100.00;100680.38;5040537;28;20104;-68
2021/10/17 03:41:15;;;;;;;6.05;2.13;;;;;;;12.35;100.00;100689.34;5022962;28;20494;-68
2021/10/17 03:43:41;;;;;;;5.15;2.40;;;;;;;12.12;100.00;100641.97;5047595;28;20612;-67
2021/10/17 03:46:06;;;;;;;7.60;2.85;;;;;;;12.39;100.00;100693.78;5048061;28;20016;-67
2021/10/17 03:48:32;;;;;;;5.93;4.00;;;;;;;12.22;100.00;100671.63;5041461;28;20035;-70
2021/10/17 03:50:58;;;;;;;5.93;4.85;;;;;;;12.21;100.00;100691.47;5039501;28;20078;-69
2021/10/17 03:53:23;;;;;;;6.35;5.57;;;;;;;12.23;100.00;100699.28;5040430;28;20076;-67
2021/10/17 03:55:49;;;;;;;6.88;4.10;;;;;;;12.24;100.00;100704.50;5039377;28;20032;-68
2021/10/17 03:58:14;;;;;;;5.00;2.13;;;;;;;12.29;100.00;100702.94;5044899;28;20029;-68
2021/10/17 04:00:40;;;;;;;4.50;3.22;;;;;;;12.33;100.00;100700.47;5040114;28;20025;-68
2021/10/17 04:03:05;;;;;;;4.20;2.80;;;;;;;12.27;100.00;100709.78;5041165;28;20056;-70
2021/10/17 04:05:31;;;;;;;3.58;1.90;;;;;;;12.11;100.00;100703.22;5044193;28;20021;-69
2021/10/17 04:07:56;;;;;;;3.65;1.80;;;;;;;12.16;100.00;100705.94;5044918;28;20060;-69
2021/10/17 04:10:22;;;;;;;7.68;2.58;;;;;;;12.10;100.00;100701.44;5014239;28;20527;-69
2021/10/17 04:12:47;;;;;;;4.18;1.60;;;;;;;11.96;100.00;100693.22;5031818;28;20514;-69
2021/10/17 04:15:13;;;;;;;3.28;2.00;;;;;;;12.04;100.00;100713.31;5032347;28;20025;-70
2021/10/17 04:17:38;;;;;;;4.32;2.03;;;;;;;12.06;100.00;100727.16;5032634;28;20544;-68
2021/10/17 04:20:05;;;;;;;3.67;1.58;;;;;;;12.12;100.00;100725.69;5032882;28;20025;-69
2021/10/17 04:22:30;;;;;;;2.53;1.70;;;;;;;11.91;100.00;100674.03;5052110;28;20056;-68
2021/10/17 04:24:56;;;;;;;5.38;1.90;;;;;;;11.77;100.00;100650.25;5047706;28;20072;-67
2021/10/17 04:27:21;;;;;;;2.65;1.88;;;;;;;12.30;100.00;100725.41;5031618;28;20095;-69
2021/10/17 04:29:47;;;;;;;3.03;2.20;;;;;;;12.38;100.00;100724.81;5031546;28;20021;-69
2021/10/17 04:32:12;;;;;;;4.45;1.90;;;;;;;12.40;100.00;100731.78;5031850;28;20388;-67
2021/10/17 04:34:38;;;;;;;7.55;2.35;;;;;;;12.36;100.00;100729.03;5031877;28;20419;-65
2021/10/17 04:37:06;;;;;;;5.10;2.35;;;;;;;12.45;100.00;100739.72;5037003;28;20106;-68
2021/10/17 04:39:32;;;;;;;3.38;1.80;;;;;;;12.50;100.00;100738.16;5031992;28;20022;-67
2021/10/17 04:41:58;;;;;;;4.50;2.15;;;;;;;12.44;100.00;100738.81;5031737;28;20092;-68
2021/10/17 04:44:24;;;;;;;7.50;2.78;;;;;;;11.63;100.00;100636.84;5031801;28;20022;-68
2021/10/17 04:46:49;;;;;;;8.27;2.90;;;;;;;12.22;100.00;100744.09;5031197;28;20033;-68
2021/10/17 04:49:15;;;;;;;5.43;2.20;;;;;;;12.07;100.00;100731.50;5031631;28;20395;-68
2021/10/17 04:51:40;;;;;;;6.75;2.03;;;;;;;12.23;100.00;100746.75;5031470;28;20510;-65
2021/10/17 04:54:05;;;;;;;17.63;12.40;;;;;;;12.23;100.00;100757.09;5031592;28;20021;-66
2021/10/17 04:56:31;;;;;;;9.15;5.63;;;;;;;12.04;100.00;100737.47;5031574;28;20025;-69
2021/10/17 04:58:57;;;;;;;10.82;7.10;;;;;;;12.19;100.00;100763.00;5031393;28;20022;-66
2021/10/17 05:01:24;;;;;;;10.32;7.10;;;;;;;11.85;100.00;100699.69;5031114;28;20029;-71
2021/10/17 05:03:49;;;;;;;9.20;5.38;;;;;;;12.31;100.00;100765.13;5031388;28;20418;-73
2021/10/17 05:06:14;;;;;;;7.20;4.35;;;;;;;12.24;100.00;100752.81;5031383;28;20017;-68
2021/10/17 05:08:40;;;;;;;6.15;3.58;;;;;;;12.40;100.00;100772.31;5031319;28;20045;-69
2021/10/17 05:11:06;;;;;;;5.38;2.75;;;;;;;12.36;100.00;100762.69;5031379;28;20108;-67
2021/10/17 05:13:31;;;;;;;4.00;2.22;;;;;;;12.45;100.00;100782.03;5033644;28;20364;-68
2021/10/17 05:15:57;;;;;;;5.15;2.40;;;;;;;12.48;100.00;100780.38;5030858;28;20040;-67
2021/10/17 05:18:23;;;;;;;4.57;2.17;;;;;;;11.62;100.00;100649.72;5031151;28;20130;-69
2021/10/17 05:20:48;;;;;;;2.83;2.00;;;;;;;12.41;100.00;100799.97;5030562;28;20037;-72
2021/10/17 05:23:15;;;;;;;7.57;4.45;;;;;;;11.85;100.00;100722.97;5045632;28;20029;-68
2021/10/17 05:25:42;;;;;;;2.03;1.33;;;;;;;12.17;100.00;100802.59;5051013;28;20520;-67
2021/10/17 05:28:08;;;;;;;7.28;1.50;;;;;;;11.98;100.00;100784.69;5033149;28;20085;-67
2021/10/17 05:30:34;;;;;;;3.38;1.50;;;;;;;11.99;100.00;100790.75;5050504;28;20025;-65
2021/10/17 05:33:00;;;;;;;2.35;1.00;;;;;;;12.01;100.00;100803.75;5005224;28;20478;-66
2021/10/17 05:35:26;;;;;;;2.13;1.27;;;;;;;11.64;100.00;100736.88;5048115;28;20032;-66
2021/10/17 05:37:52;;;;;;;4.25;1.05;;;;;;;11.94;100.00;100789.69;5051054;28;20061;-67
2021/10/17 05:40:17;;;;;;;3.00;0.90;;;;;;;11.94;100.00;100782.78;5048987;28;20507;-69
2021/10/17 05:42:43;;;;;;;1.90;0.98;;;;;;;12.18;100.00;100822.47;5030997;28;20076;-71
2021/10/17 05:45:09;;;;;;;0.80;0.80;;;;;;;12.22;100.00;100817.44;5031064;28;20022;-67
2021/10/17 05:47:34;;;;;;;2.65;0.90;;;;;;;11.82;100.00;100736.69;5030476;28;20484;-67
2021/10/17 05:50:00;;;;;;;5.28;2.45;;;;;;;12.27;100.00;100821.09;5034959;28;20034;-67
2021/10/17 05:52:26;;;;;;;3.70;2.97;;;;;;;12.12;100.00;100787.78;5010040;28;20033;-69
2021/10/17 05:54:51;;;;;;;2.83;1.98;;;;;;;12.37;100.00;100827.47;5030911;28;20024;-66
2021/10/17 05:57:17;;;;;;;4.00;2.83;;;;;;;11.48;100.00;100678.53;5030910;28;20032;-67
2021/10/17 05:59:43;;;;;;;2.95;1.48;;;;;;;12.39;100.00;100835.31;5030481;28;20041;-66
2021/10/17 06:02:08;;;;;;;0.70;0.70;;;;;;;12.31;100.00;100837.59;5022838;28;20044;-68
2021/10/17 06:04:34;;;;;;;1.77;0.80;;;;;;;12.20;100.00;100837.25;5030760;28;20056;-68
2021/10/17 06:06:59;;;;;;;1.30;0.70;;;;;;;12.22;100.00;100842.47;5030552;28;20032;-69
2021/10/17 06:09:25;;;;;;;2.75;0.80;;;;;;;12.35;100.00;100855.03;5030422;28;20028;-66
2021/10/17 06:11:50;;;;;;;1.83;0.70;;;;;;;12.16;100.00;100830.16;5031014;28;20030;-64
2021/10/17 06:14:16;;;;;;;1.25;0.90;;;;;;;12.25;100.00;100837.38;5030157;28;20472;-67
2021/10/17 06:16:42;;;;;;;0.85;0.50;;;;;;;12.37;100.00;100858.53;5030720;28;20026;-66
2021/10/17 06:19:07;;;;;;;0.50;0.50;;;;;;;12.09;100.00;100834.25;5030877;28;20025;-68
2021/10/17 06:21:32;;;;;;;2.90;0.70;;;;;;;12.26;100.00;100865.03;5031180;28;20025;-65
2021/10/17 06:24:18;;;;;;;0.70;0.70;;;;;;;12.36;100.00;100858.50;5019940;28;20046;-66
2021/10/17 06:26:45;;;;;;;0.82;0.82;;;;;;;12.28;100.00;100847.88;5018413;28;20048;-69
2021/10/17 06:29:10;;;;;;;1.08;1.00;;;;;;;12.41;100.00;100868.19;5014055;28;20041;-69
2021/10/17 06:31:37;;;;;;;2.40;1.52;;;;;;;12.46;100.00;100877.00;5008373;28;20029;-69
2021/10/17 06:34:03;;;;;;;2.38;1.20;;;;;;;12.44;100.00;100876.06;5010711;28;20041;-69
2021/10/17 06:36:29;;;;;;;1.90;1.05;;;;;;;12.47;100.00;100883.06;5011701;28;20108;-68
2021/10/17 06:38:54;;;;;;;0.82;0.75;;;;;;;12.48;100.00;100889.13;5011710;28;20481;-68
2021/10/17 06:41:20;;;;;;;1.10;1.05;;;;;;;12.51;100.00;100884.06;5018756;28;20033;-68
2021/10/17 06:43:45;;;;;;;1.27;0.88;;;;;;;12.51;99.90;100873.69;5022013;28;20041;-68
2021/10/17 06:46:11;;;;;;;1.67;0.77;;;;;;;12.02;99.82;100811.56;5021041;28;20440;-67
2021/10/17 06:48:36;;;;;;;1.38;0.95;;;;;;;12.44;97.69;100882.97;5013988;28;20037;-68
2021/10/17 06:51:03;;;;;;;1.63;1.17;;;;;;;12.21;97.05;100859.72;5024532;28;20507;-67
2021/10/17 06:53:28;;;;;;;4.25;3.55;;;;;;;12.49;99.42;100896.97;5014421;28;20040;-70
2021/10/17 06:55:54;;;;;;;1.77;1.33;;;;;;;12.39;98.50;100880.19;5036673;28;20120;-68
2021/10/17 06:58:19;;;;;;;2.58;1.40;;;;;;;12.36;98.33;100874.03;5052102;28;20056;-68
2021/10/17 07:00:45;;;;;;;1.10;1.00;;;;;;;12.50;98.19;100923.72;5038434;28;20048;-66
2021/10/17 07:03:10;;;;;;;9.02;1.30;;;;;;;12.37;98.96;100884.44;5033692;28;20018;-66
2021/10/17 07:05:36;;;;;;;2.53;1.20;;;;;;;12.51;98.19;100907.38;5033724;28;20021;-67
2021/10/17 07:08:01;;;;;;;2.45;1.30;;;;;;;12.53;98.60;100913.50;5047153;28;20021;-68
2021/10/17 07:10:27;;;;;;;3.05;1.20;;;;;;;12.11;98.10;100829.13;5049605;28;20024;-68
2021/10/17 07:12:52;;;;;;;2.72;2.28;;;;;;;12.52;97.70;100925.53;5035925;28;20029;-71
2021/10/17 07:15:18;;;;;;;5.75;2.75;;;;;;;12.55;99.22;100904.06;5038458;28;20487;-68
2021/10/17 07:17:43;;;;;;;3.53;2.72;;;;;;;12.71;100.00;100913.25;5036481;28;20025;-68
2021/10/17 07:20:09;;;;;;;5.00;3.25;;;;;;;12.65;99.87;100916.53;5033218;28;20033;-67
2021/10/17 07:22:35;;;;;;;3.17;1.70;;;;;;;12.67;97.62;100916.56;5042344;28;20069;-68
2021/10/17 07:25:00;;;;;;;2.83;1.17;;;;;;;12.66;97.11;100918.28;5053174;28;20470;-68
2021/10/17 07:27:26;;;;;;;5.18;3.08;;;;;;;12.61;96.75;100901.66;5053128;28;20415;-67
2021/10/17 07:29:51;;;;;;;1.58;1.05;;;;;;;12.74;97.97;100916.84;5053258;28;20039;-72
2021/10/17 07:32:17;;;;;;;6.65;2.60;;;;;;;12.67;97.47;100912.25;5053261;28;20055;-68
2021/10/17 07:34:42;;;;;;;9.73;4.28;;;;;;;12.62;99.29;100904.34;5052737;28;20395;-69
2021/10/17 07:37:08;;;;;;;6.35;3.03;;;;;;;12.76;98.97;100922.97;5053096;28;20032;-66
2021/10/17 07:39:33;;;;;;;3.03;1.75;;;;;;;12.79;95.65;100920.47;5053340;28;20017;-69
2021/10/17 07:41:59;;;;;;;5.60;2.40;;;;;;;12.29;94.70;100826.34;5052395;28;20123;-68
2021/10/17 07:44:25;;;;;;;1.33;1.10;;;;;;;12.88;93.85;100921.63;5052940;28;20095;-66
2021/10/17 07:46:50;;;;;;;1.88;1.10;;;;;;;12.58;94.92;100870.50;5052619;28;20419;-67
2021/10/17 07:49:16;;;;;;;4.93;2.50;;;;;;;12.74;93.95;100897.81;5052494;28;20024;-71
2021/10/17 07:51:41;;;;;;;4.53;1.88;;;;;;;12.78;94.67;100918.72;5052520;28;20082;-66
2021/10/17 07:54:08;;;;;;;4.03;2.28;;;;;;;12.88;94.06;100932.00;5052882;28;20086;-66
2021/10/17 07:56:34;;;;;;;5.47;1.90;;;;;;;12.97;93.38;100937.47;5052646;28;20025;-70
2021/10/17 07:58:59;;;;;;;2.40;1.70;;;;;;;12.94;93.34;100935.66;5052494;28;20100;-66
2021/10/17 08:01:25;;;;;;;3.75;1.83;;;;;;;12.84;93.15;100933.59;5052502;28;20036;-68
2021/10/17 08:03:51;;;;;;;6.60;4.90;;;;;;;12.92;94.49;100933.84;5052408;28;20036;-69
2021/10/17 08:06:16;;;;;;;7.68;3.67;;;;;;;13.01;95.00;100944.56;5051977;28;20028;-68
2021/10/17 08:08:41;;;;;;;20.65;10.10;;;;;;;13.03;94.59;100937.69;5044749;28;20024;-68
2021/10/17 08:11:07;;;;;;;41.72;15.00;;;;;;;12.94;95.76;100924.44;5045166;28;20037;-68
2021/10/17 08:13:32;;;;;;;7.35;3.35;;;;;;;13.03;96.45;100932.50;5043516;28;20040;-67
2021/10/17 08:15:58;;;;;;;73.25;23.27;;;;;;;12.63;96.13;100868.94;5052597;28;20033;-68
2021/10/17 08:18:26;;;;;;;6.85;4.03;;;;;;;13.04;97.11;100938.59;5039903;28;20037;-68
2021/10/17 08:20:52;;;;;;;5.05;3.70;;;;;;;13.16;96.84;100939.00;5052421;28;20032;-68
2021/10/17 08:23:17;;;;;;;2.20;1.60;;;;;;;13.16;96.42;100939.00;5052393;28;20029;-68
2021/10/17 08:25:43;;;;;;;7.45;3.85;;;;;;;12.75;96.53;100866.78;5052619;28;20029;-69
2021/10/17 08:28:12;;;;;;;4.35;1.85;;;;;;;13.09;98.01;100924.94;5034495;28;20049;-69
2021/10/17 08:30:38;;;;;;;15.63;10.18;;;;;;;13.02;97.27;100909.13;5051934;28;20119;-68
2021/10/17 08:33:04;;;;;;;9.88;6.43;;;;;;;13.19;96.80;100939.09;5052175;28;20112;-68
2021/10/17 08:35:29;;;;;;;7.50;4.32;;;;;;;13.16;97.83;100926.03;5051999;28;20029;-67
2021/10/17 08:37:55;;;;;;;6.68;3.40;;;;;;;13.26;98.46;100938.47;5052176;28;20025;-67
2021/10/17 08:40:20;;;;;;;4.70;1.88;;;;;;;13.25;97.72;100934.13;5051909;28;20032;-67
2021/10/17 08:42:48;;;;;;;3.15;1.30;;;;;;;13.28;97.23;100938.53;5051987;28;20489;-68
2021/10/17 08:45:14;;;;;;;2.42;1.40;;;;;;;13.37;97.71;100945.72;5051994;28;20029;-67
2021/10/17 08:47:39;;;;;;;2.17;1.30;;;;;;;12.70;97.43;100845.03;5051828;28;20486;-67
2021/10/17 08:50:07;;;;;;;4.10;1.40;;;;;;;12.94;99.34;100880.38;5051899;28;20071;-68
2021/10/17 08:52:34;;;;;;;3.40;1.55;;;;;;;13.45;98.60;100944.31;5048657;28;20032;-67
2021/10/17 08:55:00;;;;;;;3.33;1.40;;;;;;;13.36;97.76;100931.91;5051613;28;20021;-66
2021/10/17 08:57:26;;;;;;;4.10;1.60;;;;;;;13.35;98.22;100945.69;5051434;28;20024;-68
2021/10/17 08:59:52;;;;;;;4.63;1.40;;;;;;;13.40;97.88;100954.53;5051568;28;20025;-68
2021/10/17 09:02:21;;;;;;;2.10;1.20;;;;;;;13.41;95.88;100956.28;5051970;28;20072;-69
2021/10/17 09:04:58;;;;;;;4.78;1.40;;;;;;;13.59;94.86;100957.72;5051801;28;20025;-68
2021/10/17 09:07:24;;;;;;;3.70;1.30;;;;;;;13.67;94.80;100945.91;5051861;28;20071;-69
2021/10/17 09:10:13;;;;;;;1.75;1.30;;;;;;;13.66;93.01;100962.28;5051689;28;20064;-68
2021/10/17 09:12:42;;;;;;;2.22;1.40;;;;;;;13.72;94.06;100951.22;5051168;28;20099;-68
2021/10/17 09:15:24;;;;;;;2.70;1.50;;;;;;;13.61;91.52;100930.13;5051401;28;20033;-68
2021/10/17 09:18:04;;;;;;;1.98;1.48;;;;;;;13.81;92.44;100958.44;5051156;28;20079;-68
2021/10/17 09:20:35;;;;;;;3.38;1.52;;;;;;;13.79;92.60;100945.38;5051303;28;20028;-69
2021/10/17 09:23:02;;;;;;;2.95;1.50;;;;;;;13.88;92.72;100956.06;5051443;28;20667;-68
2021/10/17 09:25:33;;;;;;;4.45;1.70;;;;;;;13.93;92.11;100961.38;5051393;28;20398;-69
2021/10/17 09:27:59;;;;;;;3.05;1.55;;;;;;;13.97;91.68;100957.16;5051201;28;20044;-68
2021/10/17 09:30:25;;;;;;;6.13;2.25;;;;;;;13.90;92.15;100949.19;5051321;28;20036;-68
2021/10/17 09:32:51;;;;;;;2.40;1.60;;;;;;;13.90;93.77;100946.59;5051147;28;20033;-66
2021/10/17 09:35:16;;;;;;;2.58;1.63;;;;;;;13.77;91.71;100944.47;5051044;28;20029;-68
2021/10/17 09:37:43;;;;;;;2.58;1.63;;;;;;;13.42;91.24;100877.66;5051202;28;20074;-68
2021/10/17 09:40:21;;;;;;;3.13;1.60;;;;;;;13.91;93.02;100963.94;5046639;28;20036;-68
2021/10/17 09:43:06;;;;;;;2.50;1.90;;;;;;;13.87;91.30;100959.50;5004558;28;20522;-68
2021/10/17 09:45:32;;;;;;;2.85;1.73;;;;;;;13.32;92.02;100856.53;5031358;28;20117;-68
2021/10/17 09:47:58;;;;;;;3.75;2.33;;;;;;;13.81;90.95;100961.03;5033952;28;20084;-69
2021/10/17 09:50:26;;;;;;;6.85;3.10;;;;;;;13.80;92.73;100959.25;5051029;28;20029;-69
2021/10/17 09:52:58;;;;;;;3.28;2.42;;;;;;;13.82;93.30;100962.75;5051238;28;20086;-69
2021/10/17 09:55:24;;;;;;;4.45;1.98;;;;;;;13.85;91.43;100942.13;5051058;28;20457;-68
2021/10/17 09:57:51;;;;;;;3.65;1.63;;;;;;;13.43;90.81;100868.16;5051111;28;20029;-68
2021/10/17 10:00:17;;;;;;;4.90;1.90;;;;;;;13.89;90.83;100944.88;5051390;28;20494;-68
2021/10/17 10:02:47;;;;;;;3.20;1.75;;;;;;;14.08;90.19;100950.59;5051019;28;20029;-68
2021/10/17 10:05:21;;;;;;;2.60;2.08;;;;;;;14.24;91.16;100957.13;5033122;28;20475;-69
2021/10/17 10:07:49;;;;;;;2.60;2.00;;;;;;;14.08;90.11;100930.72;5051379;28;20032;-69
2021/10/17 10:10:15;;;;;;;3.92;2.20;;;;;;;14.26;90.66;100945.09;5054966;28;20040;-69
2021/10/17 10:12:43;;;;;;;4.22;1.85;;;;;;;14.35;88.56;100954.84;5055172;28;20083;-68
2021/10/17 10:15:09;;;;;;;13.07;9.32;;;;;;;14.33;89.63;100952.22;5055181;28;20024;-69
2021/10/17 10:17:38;;;;;;;5.13;2.53;;;;;;;14.26;89.51;100946.81;5055136;28;20484;-69
2021/10/17 10:20:04;;;;;;;11.60;1.80;;;;;;;13.93;89.04;100890.44;5054537;28;20036;-68
2021/10/17 10:22:31;;;;;;;1.48;1.10;;;;;;;14.29;87.10;100946.88;5054579;28;20040;-68
2021/10/17 10:24:58;;;;;;;3.72;1.80;;;;;;;14.33;87.64;100947.03;5054808;28;20036;-69
2021/10/17 10:27:25;;;;;;;5.03;1.70;;;;;;;14.44;87.64;100946.44;5054733;28;20202;-69
2021/10/17 10:29:50;;;;;;;2.42;1.67;;;;;;;14.47;87.14;100947.41;5054568;28;20483;-69
2021/10/17 10:32:26;;;;;;;2.97;2.05;;;;;;;14.47;87.69;100946.56;5054232;28;20025;-69
2021/10/17 10:34:54;;;;;;;5.20;1.83;;;;;;;14.51;87.82;100945.78;5054310;28;20036;-69
2021/10/17 10:37:21;;;;;;;3.88;2.53;;;;;;;14.59;90.26;100938.22;5002900;28;20133;-69
2021/10/17 10:40:05;;;;;;;2.88;2.20;;;;;;;14.66;88.57;100929.78;5054391;28;20506;-69
2021/10/17 10:42:37;;;;;;;7.25;2.35;;;;;;;14.46;88.64;100887.63;5054355;28;20021;-68
2021/10/17 10:45:28;;;;;;;4.55;2.38;;;;;;;14.84;88.54;100938.09;5054304;28;20055;-68
2021/10/17 10:48:11;;;;;;;8.70;2.20;;;;;;;14.90;88.23;100939.09;4973347;28;20042;-67
2021/10/17 10:50:42;;;;;;;3.45;2.50;;;;;;;14.92;87.83;100940.03;4973082;28;20034;-68
2021/10/17 10:53:11;;;;;;;6.13;2.78;;;;;;;14.62;86.71;100871.63;4973248;28;20042;-68
2021/10/17 10:55:51;;;;;;;5.45;2.70;;;;;;;15.13;86.27;100929.31;4972826;28;20034;-68
2021/10/17 10:58:25;;;;;;;3.85;3.00;;;;;;;15.15;84.93;100931.09;4972886;28;20031;-68
2021/10/17 11:00:53;;;;;;;3.72;2.80;;;;;;;15.12;84.25;100917.13;4973168;28;20035;-68
2021/10/17 11:03:20;;;;;;;5.78;3.30;;;;;;;15.21;84.34;100922.56;4973171;28;20030;-67
2021/10/17 11:06:04;;;;;;;5.53;3.05;;;;;;;15.12;82.35;100922.34;4972890;28;20042;-67
2021/10/17 11:08:29;;;;;;;4.38;3.40;;;;;;;15.06;82.98;100915.25;4972621;28;20035;-68
2021/10/17 11:10:55;;;;;;;4.70;3.65;;;;;;;14.91;84.36;100902.72;4972875;28;20046;-68
2021/10/17 11:13:28;;;;;;;5.60;3.45;;;;;;;14.55;84.69;100919.94;4973125;28;20194;-67
2021/10/17 11:15:54;;;;;;;6.40;3.78;;;;;;;14.71;86.46;100918.66;4972642;28;20077;-68
2021/10/17 11:18:19;;;;;;;6.28;3.60;;;;;;;14.88;84.03;100913.06;4972251;28;20070;-67